createdAt,value
2019-04-05T00:00:10.337Z,994.8
2019-04-05T00:01:12.760Z,994.8
2019-04-05T00:02:14.879Z,994.8
2019-04-05T00:03:17.269Z,994.8
2019-04-05T00:04:19.369Z,994.8
2019-04-05T00:05:21.461Z,994.8
2019-04-05T00:06:23.818Z,994.9
2019-04-05T00:07:25.968Z,994.9
2019-04-05T00:08:28.080Z,994.9
2019-04-05T00:09:30.170Z,994.9
2019-04-05T00:10:32.260Z,994.8
2019-04-05T00:11:34.760Z,994.9
2019-04-05T00:12:36.849Z,994.9
2019-04-05T00:13:38.958Z,994.9
2019-04-05T00:14:41.065Z,994.9
2019-04-05T00:15:43.155Z,994.9
2019-04-05T00:16:45.246Z,995
2019-04-05T00:17:47.338Z,994.9
2019-04-05T00:18:49.418Z,994.9
2019-04-05T00:19:51.511Z,994.9
2019-04-05T00:20:53.608Z,994.9
2019-04-05T00:21:55.704Z,994.9
2019-04-05T00:22:57.809Z,994.9
2019-04-05T00:23:59.906Z,994.9
2019-04-05T00:25:02.363Z,994.9
2019-04-05T00:26:04.458Z,994.9
2019-04-05T00:27:06.592Z,994.9
2019-04-05T00:28:08.681Z,994.9
2019-04-05T00:29:11.059Z,994.9
2019-04-05T00:30:13.176Z,994.9
2019-04-05T00:31:15.262Z,994.9
2019-04-05T00:32:17.373Z,994.8
2019-04-05T00:33:19.472Z,994.8
2019-04-05T00:34:21.565Z,994.8
2019-04-05T00:35:23.648Z,994.9
2019-04-05T00:36:25.754Z,994.9
2019-04-05T00:37:28.192Z,995
2019-04-05T00:38:30.575Z,995
2019-04-05T00:39:32.941Z,995.1
2019-04-05T00:40:35.041Z,995.1
2019-04-05T00:41:37.137Z,995.1
2019-04-05T00:42:39.549Z,995.1
2019-04-05T00:43:41.645Z,995.1
2019-04-05T00:44:44.132Z,995
2019-04-05T00:45:46.231Z,995
2019-04-05T00:46:48.616Z,995
2019-04-05T00:47:50.706Z,995.1
2019-04-05T00:48:53.086Z,995.2
2019-04-05T00:49:55.188Z,995.2
2019-04-05T00:50:57.283Z,995.3
2019-04-05T00:51:59.370Z,995.2
2019-04-05T00:53:01.459Z,995.2
2019-04-05T00:54:03.567Z,995.2
2019-04-05T00:55:05.649Z,995.3
2019-04-05T00:56:08.162Z,995.2
2019-04-05T00:57:10.306Z,995.2
2019-04-05T00:58:12.407Z,995.2
2019-04-05T00:59:14.488Z,995.2
2019-04-05T01:00:16.608Z,995.2
2019-04-05T01:01:19.076Z,995.2
2019-04-05T01:02:21.176Z,995.1
2019-04-05T01:03:23.283Z,995.2
2019-04-05T01:04:25.367Z,995.2
2019-04-05T01:05:27.497Z,995.2
2019-04-05T01:06:29.896Z,995.2
2019-04-05T01:07:31.995Z,995.3
2019-04-05T01:08:34.092Z,995.3
2019-04-05T01:09:36.753Z,995.3
2019-04-05T01:10:39.122Z,995.3
2019-04-05T01:11:41.218Z,995.2
2019-04-05T01:12:43.342Z,995.3
2019-04-05T01:13:45.727Z,995.2
2019-04-05T01:14:47.820Z,995.3
2019-04-05T01:15:50.186Z,995.3
2019-04-05T01:16:52.564Z,995.3
2019-04-05T01:17:54.662Z,995.3
2019-04-05T01:18:56.743Z,995.2
2019-04-05T01:19:58.851Z,995.2
2019-04-05T01:21:01.603Z,995.2
2019-04-05T01:22:03.990Z,995.2
2019-04-05T01:23:06.098Z,995.2
2019-04-05T01:24:08.231Z,995.2
2019-04-05T01:25:10.311Z,995.2
2019-04-05T01:26:12.410Z,995.2
2019-04-05T01:27:14.501Z,995.2
2019-04-05T01:28:16.588Z,995.2
2019-04-05T01:29:18.697Z,995.2
2019-04-05T01:30:20.779Z,995.2
2019-04-05T01:31:23.153Z,995.2
2019-04-05T01:32:25.535Z,995.3
2019-04-05T01:33:27.636Z,995.2
2019-04-05T01:34:29.728Z,995.3
2019-04-05T01:35:31.813Z,995.3
2019-04-05T01:36:33.912Z,995.4
2019-04-05T01:37:35.992Z,995.4
2019-04-05T01:38:38.094Z,995.4
2019-04-05T01:39:40.190Z,995.4
2019-04-05T01:40:42.279Z,995.4
2019-04-05T01:41:44.355Z,995.5
2019-04-05T01:42:46.449Z,995.5
2019-04-05T01:43:48.535Z,995.5
2019-04-05T01:44:52.251Z,995.5
2019-04-05T01:45:54.946Z,995.5
2019-04-05T01:46:57.319Z,995.5
2019-04-05T01:47:59.402Z,995.5
2019-04-05T01:49:01.496Z,995.5
2019-04-05T01:50:03.585Z,995.5
2019-04-05T01:51:05.671Z,995.5
2019-04-05T01:52:08.068Z,995.5
2019-04-05T01:53:10.139Z,995.5
2019-04-05T01:54:12.231Z,995.5
2019-04-05T01:55:14.330Z,995.5
2019-04-05T01:56:16.438Z,995.5
2019-04-05T01:57:18.520Z,995.6
2019-04-05T01:58:20.623Z,995.6
2019-04-05T01:59:22.717Z,995.6
2019-04-05T02:00:25.085Z,995.7
2019-04-05T02:01:27.192Z,995.7
2019-04-05T02:02:29.271Z,995.7
2019-04-05T02:03:31.366Z,995.7
2019-04-05T02:04:33.458Z,995.7
2019-04-05T02:05:35.556Z,995.7
2019-04-05T02:06:37.698Z,995.7
2019-04-05T02:07:39.808Z,995.7
2019-04-05T02:08:41.906Z,995.7
2019-04-05T02:09:44.265Z,995.7
2019-04-05T02:10:46.372Z,995.8
2019-04-05T02:11:49.133Z,995.8
2019-04-05T02:12:51.228Z,995.8
2019-04-05T02:13:53.320Z,995.8
2019-04-05T02:14:55.429Z,995.8
2019-04-05T02:16:07.018Z,995.7
2019-04-05T02:17:09.510Z,995.8
2019-04-05T02:18:11.611Z,995.8
2019-04-05T02:19:13.683Z,995.8
2019-04-05T02:20:15.783Z,995.8
2019-04-05T02:21:17.866Z,995.8
2019-04-05T02:22:20.337Z,995.8
2019-04-05T02:23:22.717Z,995.9
2019-04-05T02:24:25.375Z,995.9
2019-04-05T02:25:27.466Z,995.9
2019-04-05T02:26:29.564Z,995.8
2019-04-05T02:27:31.655Z,995.7
2019-04-05T02:28:34.128Z,995.8
2019-04-05T02:29:36.210Z,995.8
2019-04-05T02:30:38.315Z,995.8
2019-04-05T02:31:40.430Z,995.8
2019-04-05T02:32:42.544Z,995.8
2019-04-05T02:33:44.927Z,995.8
2019-04-05T02:34:47.704Z,995.8
2019-04-05T02:35:50.088Z,995.8
2019-04-05T02:36:52.790Z,995.8
2019-04-05T02:37:54.884Z,995.8
2019-04-05T02:38:56.999Z,995.8
2019-04-05T02:39:59.093Z,995.8
2019-04-05T02:41:01.526Z,995.8
2019-04-05T02:42:04.263Z,995.9
2019-04-05T02:43:06.368Z,995.9
2019-04-05T02:44:08.914Z,995.9
2019-04-05T02:45:11.396Z,995.9
2019-04-05T02:46:24.485Z,995.9
2019-04-05T02:47:26.643Z,995.9
2019-04-05T02:48:28.777Z,995.9
2019-04-05T02:49:31.169Z,995.9
2019-04-05T02:50:33.265Z,995.9
2019-04-05T02:51:35.426Z,995.9
2019-04-05T02:52:37.500Z,995.9
2019-04-05T02:53:39.859Z,995.9
2019-04-05T02:54:42.584Z,995.9
2019-04-05T02:55:44.729Z,995.9
2019-04-05T02:56:47.073Z,995.9
2019-04-05T02:57:49.430Z,995.9
2019-04-05T02:58:51.488Z,995.9
2019-04-05T02:59:53.949Z,995.9
2019-04-05T03:00:56.555Z,996
2019-04-05T03:01:59.981Z,996.1
2019-04-05T03:03:02.710Z,996.1
2019-04-05T03:04:04.842Z,996.1
2019-04-05T03:05:07.874Z,996
2019-04-05T03:06:09.920Z,996.1
2019-04-05T03:07:12.317Z,996
2019-04-05T03:08:14.684Z,996.1
2019-04-05T03:09:17.063Z,996
2019-04-05T03:10:19.127Z,996
2019-04-05T03:11:21.753Z,996
2019-04-05T03:12:23.818Z,996.1
2019-04-05T03:13:25.844Z,996
2019-04-05T03:14:28.289Z,996.1
2019-04-05T03:15:30.782Z,996.1
2019-04-05T03:16:42.240Z,996.1
2019-04-05T03:17:45.234Z,996.1
2019-04-05T03:18:47.705Z,996.1
2019-04-05T03:19:50.038Z,996.2
2019-04-05T03:20:52.084Z,996.1
2019-04-05T03:21:54.480Z,996.1
2019-04-05T03:22:56.534Z,996.1
2019-04-05T03:23:58.592Z,996.1
2019-04-05T03:25:01.026Z,996.1
2019-04-05T03:26:03.294Z,996.1
2019-04-05T03:27:05.386Z,996.2
2019-04-05T03:28:07.712Z,996.1
2019-04-05T03:29:09.770Z,996.1
2019-04-05T03:30:12.435Z,996.1
2019-04-05T03:31:14.808Z,996.1
2019-04-05T03:32:17.617Z,996.1
2019-04-05T03:33:19.981Z,996
2019-04-05T03:34:22.435Z,996
2019-04-05T03:35:24.516Z,996
2019-04-05T03:36:27.376Z,996
2019-04-05T03:37:29.429Z,996
2019-04-05T03:38:31.476Z,996
2019-04-05T03:39:33.521Z,996
2019-04-05T03:40:35.874Z,995.9
2019-04-05T03:41:38.310Z,995.9
2019-04-05T03:42:40.650Z,995.9
2019-04-05T03:43:43.357Z,995.9
2019-04-05T03:44:45.413Z,995.9
2019-04-05T03:45:47.725Z,995.9
2019-04-05T03:46:58.105Z,995.9
2019-04-05T03:48:00.884Z,995.9
2019-04-05T03:49:03.247Z,995.9
2019-04-05T03:50:05.961Z,995.9
2019-04-05T03:51:08.406Z,996
2019-04-05T03:52:11.139Z,996
2019-04-05T03:53:13.182Z,996
2019-04-05T03:54:15.237Z,996
2019-04-05T03:55:17.372Z,996
2019-04-05T03:56:19.453Z,996
2019-04-05T03:57:21.507Z,996
2019-04-05T03:58:23.572Z,996.1
2019-04-05T03:59:26.231Z,996.1
2019-04-05T04:00:28.311Z,996.1
2019-04-05T04:01:30.751Z,996.1
2019-04-05T04:02:32.785Z,996.1
2019-04-05T04:03:35.113Z,996.2
2019-04-05T04:04:37.474Z,996.1
2019-04-05T04:05:40.121Z,996.2
2019-04-05T04:06:42.837Z,996.2
2019-04-05T04:07:44.896Z,996.2
2019-04-05T04:08:47.237Z,996.2
2019-04-05T04:09:49.682Z,996.2
2019-04-05T04:10:51.848Z,996.2
2019-04-05T04:11:53.880Z,996.2
2019-04-05T04:12:56.331Z,996.1
2019-04-05T04:13:58.765Z,996.1
2019-04-05T04:15:00.811Z,996.1
2019-04-05T04:16:02.915Z,996.2
2019-04-05T04:17:13.687Z,996.1
2019-04-05T04:18:16.400Z,996.2
2019-04-05T04:19:18.711Z,996.2
2019-04-05T04:20:20.873Z,996.2
2019-04-05T04:21:22.902Z,996.1
2019-04-05T04:22:25.056Z,996.2
2019-04-05T04:23:27.413Z,996.2
2019-04-05T04:24:29.737Z,996.2
2019-04-05T04:25:32.071Z,996.2
2019-04-05T04:26:34.498Z,996.2
2019-04-05T04:27:36.547Z,996.2
2019-04-05T04:28:39.364Z,996.3
2019-04-05T04:29:42.087Z,996.3
2019-04-05T04:30:44.174Z,996.3
2019-04-05T04:31:46.680Z,996.3
2019-04-05T04:32:49.073Z,996.3
2019-04-05T04:33:51.111Z,996.3
2019-04-05T04:34:53.461Z,996.3
2019-04-05T04:35:55.532Z,996.4
2019-04-05T04:36:57.658Z,996.4
2019-04-05T04:37:59.978Z,996.4
2019-04-05T04:39:02.316Z,996.4
2019-04-05T04:40:04.370Z,996.4
2019-04-05T04:41:06.422Z,996.4
2019-04-05T04:42:09.308Z,996.4
2019-04-05T04:43:11.346Z,996.5
2019-04-05T04:44:13.443Z,996.5
2019-04-05T04:45:15.498Z,996.5
2019-04-05T04:46:17.549Z,996.5
2019-04-05T04:47:27.597Z,996.5
2019-04-05T04:48:30.281Z,996.6
2019-04-05T04:49:32.603Z,996.6
2019-04-05T04:50:34.652Z,996.6
2019-04-05T04:51:36.688Z,996.6
2019-04-05T04:52:38.726Z,996.6
2019-04-05T04:53:40.757Z,996.6
2019-04-05T04:54:43.082Z,996.7
2019-04-05T04:55:45.148Z,996.7
2019-04-05T04:56:47.176Z,996.7
2019-04-05T04:57:49.224Z,996.7
2019-04-05T04:58:51.544Z,996.7
2019-04-05T04:59:53.879Z,996.7
2019-04-05T05:00:55.922Z,996.7
2019-04-05T05:01:57.971Z,996.7
2019-04-05T05:03:00.296Z,996.8
2019-04-05T05:04:02.722Z,996.8
2019-04-05T05:05:05.146Z,996.8
2019-04-05T05:06:07.585Z,996.7
2019-04-05T05:07:10.392Z,996.7
2019-04-05T05:08:12.705Z,996.7
2019-04-05T05:09:15.133Z,996.7
2019-04-05T05:10:17.164Z,996.7
2019-04-05T05:11:19.192Z,996.7
2019-04-05T05:12:21.633Z,996.7
2019-04-05T05:13:23.666Z,996.8
2019-04-05T05:14:26.045Z,996.8
2019-04-05T05:15:28.101Z,996.9
2019-04-05T05:16:30.534Z,996.9
2019-04-05T05:17:39.144Z,996.9
2019-04-05T05:18:41.310Z,996.9
2019-04-05T05:19:43.354Z,996.9
2019-04-05T05:20:45.379Z,997
2019-04-05T05:21:47.991Z,997
2019-04-05T05:22:50.009Z,997
2019-04-05T05:23:52.045Z,997
2019-04-05T05:24:54.751Z,997
2019-04-05T05:25:56.797Z,997.1
2019-04-05T05:26:58.831Z,997.1
2019-04-05T05:28:00.882Z,997
2019-04-05T05:29:03.325Z,997.1
2019-04-05T05:30:05.368Z,997
2019-04-05T05:31:07.476Z,997.1
2019-04-05T05:32:10.046Z,997.1
2019-04-05T05:33:12.111Z,997
2019-04-05T05:34:14.551Z,997.1
2019-04-05T05:35:16.617Z,997.1
2019-04-05T05:36:18.926Z,997.1
2019-04-05T05:37:21.301Z,997.1
2019-04-05T05:38:23.341Z,997.2
2019-04-05T05:39:25.369Z,997.1
2019-04-05T05:40:35.652Z,997.2
2019-04-05T05:41:38.032Z,997.2
2019-04-05T05:42:40.470Z,997.2
2019-04-05T05:43:42.504Z,997.2
2019-04-05T05:44:44.544Z,997.2
2019-04-05T05:45:46.979Z,997.2
2019-04-05T05:46:49.000Z,997.2
2019-04-05T05:47:52.697Z,997.3
2019-04-05T05:48:55.321Z,997.3
2019-04-05T05:49:57.351Z,997.3
2019-04-05T05:50:59.378Z,997.4
2019-04-05T05:52:01.417Z,997.4
2019-04-05T05:53:03.451Z,997.4
2019-04-05T05:54:05.502Z,997.5
2019-04-05T05:55:07.840Z,997.5
2019-04-05T05:56:09.894Z,997.5
2019-04-05T05:57:11.931Z,997.6
2019-04-05T05:58:13.969Z,997.7
2019-04-05T05:59:16.007Z,997.7
2019-04-05T06:00:18.037Z,997.7
2019-04-05T06:01:20.364Z,997.7
2019-04-05T06:02:22.461Z,997.8
2019-04-05T06:03:24.489Z,997.8
2019-04-05T06:04:26.555Z,997.8
2019-04-05T06:05:28.870Z,997.8
2019-04-05T06:06:30.902Z,997.8
2019-04-05T06:07:32.940Z,997.9
2019-04-05T06:08:34.980Z,997.9
2019-04-05T06:09:37.007Z,997.8
2019-04-05T06:10:39.092Z,997.7
2019-04-05T06:11:41.129Z,997.7
2019-04-05T06:12:43.146Z,997.8
2019-04-05T06:13:45.188Z,997.7
2019-04-05T06:14:47.223Z,997.7
2019-04-05T06:15:49.257Z,997.8
2019-04-05T06:16:51.293Z,997.7
2019-04-05T06:18:05.240Z,997.7
2019-04-05T06:19:08.063Z,997.7
2019-04-05T06:20:10.099Z,997.7
2019-04-05T06:21:12.151Z,997.7
2019-04-05T06:22:14.192Z,997.7
2019-04-05T06:23:16.222Z,997.7
2019-04-05T06:24:18.243Z,997.8
2019-04-05T06:25:20.360Z,997.7
2019-04-05T06:26:23.328Z,997.7
2019-04-05T06:27:25.360Z,997.8
2019-04-05T06:28:27.872Z,997.8
2019-04-05T06:29:30.519Z,997.7
2019-04-05T06:30:32.839Z,997.8
2019-04-05T06:31:35.443Z,997.7
2019-04-05T06:32:37.608Z,997.7
2019-04-05T06:33:39.635Z,997.7
2019-04-05T06:34:41.678Z,997.7
2019-04-05T06:35:43.708Z,997.7
2019-04-05T06:36:46.015Z,997.7
2019-04-05T06:37:48.072Z,997.7
2019-04-05T06:38:50.497Z,997.8
2019-04-05T06:39:52.810Z,997.7
2019-04-05T06:40:54.903Z,997.7
2019-04-05T06:41:56.942Z,997.7
2019-04-05T06:42:58.970Z,997.7
2019-04-05T06:44:01.453Z,997.7
2019-04-05T06:45:03.770Z,997.8
2019-04-05T06:46:05.865Z,997.8
2019-04-05T06:47:08.792Z,997.7
2019-04-05T06:48:19.954Z,997.7
2019-04-05T06:49:22.321Z,997.7
2019-04-05T06:50:24.360Z,997.7
2019-04-05T06:51:26.402Z,997.7
2019-04-05T06:52:28.429Z,997.8
2019-04-05T06:53:30.474Z,997.8
2019-04-05T06:54:32.518Z,997.7
2019-04-05T06:55:34.547Z,997.7
2019-04-05T06:56:36.867Z,997.7
2019-04-05T06:57:39.399Z,997.7
2019-04-05T06:58:41.446Z,997.7
2019-04-05T06:59:43.497Z,997.8
2019-04-05T07:00:57.581Z,997.8
2019-04-05T07:01:59.707Z,997.8
2019-04-05T07:03:02.091Z,997.7
2019-04-05T07:04:04.928Z,997.8
2019-04-05T07:05:07.241Z,997.8
2019-04-05T07:06:09.551Z,997.8
2019-04-05T07:07:11.878Z,997.8
2019-04-05T07:08:14.198Z,997.8
2019-04-05T07:09:19.673Z,997.9
2019-04-05T07:10:22.004Z,997.8
2019-04-05T07:11:24.028Z,997.9
2019-04-05T07:12:26.071Z,997.8
2019-04-05T07:13:28.116Z,997.8
2019-04-05T07:14:30.156Z,997.8
2019-04-05T07:15:32.211Z,997.8
2019-04-05T07:16:34.256Z,997.8
2019-04-05T07:17:36.283Z,997.8
2019-04-05T07:18:38.318Z,997.8
2019-04-05T07:19:40.367Z,997.9
2019-04-05T07:20:42.396Z,997.8
2019-04-05T07:21:44.430Z,997.9
2019-04-05T07:22:46.467Z,997.9
2019-04-05T07:23:48.572Z,997.9
2019-04-05T07:24:50.613Z,997.9
2019-04-05T07:25:52.653Z,997.9
2019-04-05T07:26:54.679Z,997.9
2019-04-05T07:27:57.107Z,997.9
2019-04-05T07:28:59.432Z,997.9
2019-04-05T07:30:01.467Z,997.9
2019-04-05T07:31:03.805Z,997.9
2019-04-05T07:32:05.847Z,997.9
2019-04-05T07:33:08.162Z,997.9
2019-04-05T07:34:10.199Z,997.9
2019-04-05T07:35:12.233Z,997.9
2019-04-05T07:36:14.288Z,997.9
2019-04-05T07:37:16.366Z,997.9
2019-04-05T07:38:18.998Z,997.9
2019-04-05T07:39:21.042Z,997.9
2019-04-05T07:40:23.369Z,997.9
2019-04-05T07:41:25.689Z,997.9
2019-04-05T07:42:28.432Z,997.9
2019-04-05T07:43:30.863Z,997.9
2019-04-05T07:44:32.881Z,997.9
2019-04-05T07:45:34.960Z,998
2019-04-05T07:46:36.993Z,998.1
2019-04-05T07:47:39.027Z,998.1
2019-04-05T07:48:45.675Z,998.2
2019-04-05T07:49:48.463Z,998.1
2019-04-05T07:50:50.525Z,998.1
2019-04-05T07:51:52.943Z,998.1
2019-04-05T07:52:54.992Z,998
2019-04-05T07:53:57.404Z,998
2019-04-05T07:54:59.450Z,998
2019-04-05T07:56:01.488Z,998
2019-04-05T07:57:03.564Z,998
2019-04-05T07:58:05.593Z,998.1
2019-04-05T07:59:07.663Z,998.1
2019-04-05T08:00:09.692Z,998.1
2019-04-05T08:01:11.796Z,998.2
2019-04-05T08:02:13.838Z,998.2
2019-04-05T08:03:16.164Z,998.2
2019-04-05T08:04:18.201Z,998.2
2019-04-05T08:05:20.668Z,998.2
2019-04-05T08:06:22.713Z,998.3
2019-04-05T08:07:24.814Z,998.3
2019-04-05T08:08:26.861Z,998.2
2019-04-05T08:09:28.891Z,998.2
2019-04-05T08:10:30.948Z,998.2
2019-04-05T08:11:33.011Z,998.2
2019-04-05T08:12:35.070Z,998.2
2019-04-05T08:13:37.100Z,998.2
2019-04-05T08:14:39.143Z,998.2
2019-04-05T08:15:41.268Z,998.3
2019-04-05T08:16:43.290Z,998.3
2019-04-05T08:17:45.353Z,998.3
2019-04-05T08:18:58.415Z,998.3
2019-04-05T08:20:00.801Z,998.3
2019-04-05T08:21:02.844Z,998.3
2019-04-05T08:22:05.196Z,998.3
2019-04-05T08:23:07.233Z,998.3
2019-04-05T08:24:09.855Z,998.3
2019-04-05T08:25:12.517Z,998.3
2019-04-05T08:26:14.566Z,998.3
2019-04-05T08:27:16.689Z,998.3
2019-04-05T08:28:18.728Z,998.3
2019-04-05T08:29:21.039Z,998.2
2019-04-05T08:30:23.092Z,998.3
2019-04-05T08:31:25.508Z,998.2
2019-04-05T08:32:27.834Z,998.2
2019-04-05T08:33:29.880Z,998.2
2019-04-05T08:34:31.986Z,998.2
2019-04-05T08:35:34.022Z,998.2
2019-04-05T08:36:36.459Z,998.2
2019-04-05T08:37:38.504Z,998.2
2019-04-05T08:38:40.916Z,998.2
2019-04-05T08:39:42.967Z,998.1
2019-04-05T08:40:45.027Z,998.1
2019-04-05T08:41:47.365Z,998.1
2019-04-05T08:42:49.417Z,998.2
2019-04-05T08:43:52.024Z,998.1
2019-04-05T08:44:54.068Z,998.1
2019-04-05T08:45:56.109Z,998.1
2019-04-05T08:46:58.451Z,998.1
2019-04-05T08:48:00.492Z,998.1
2019-04-05T08:49:11.762Z,998.1
2019-04-05T08:50:14.243Z,998.1
2019-04-05T08:51:16.285Z,998.1
2019-04-05T08:52:18.325Z,998.1
2019-04-05T08:53:20.381Z,998
2019-04-05T08:54:36.573Z,998
2019-04-05T08:55:39.134Z,998
2019-04-05T08:56:41.187Z,998
2019-04-05T08:57:43.908Z,998.1
2019-04-05T08:58:49.093Z,998
2019-04-05T08:59:53.595Z,998.1
2019-04-05T09:00:55.685Z,998.1
2019-04-05T09:01:57.738Z,998
2019-04-05T09:02:59.776Z,998
2019-04-05T09:04:01.827Z,998
2019-04-05T09:05:03.893Z,998
2019-04-05T09:06:05.939Z,998
2019-04-05T09:07:08.001Z,998
2019-04-05T09:08:10.116Z,998
2019-04-05T09:09:12.157Z,998
2019-04-05T09:10:14.210Z,998
2019-04-05T09:11:16.269Z,998
2019-04-05T09:12:18.605Z,998
2019-04-05T09:13:20.662Z,998
2019-04-05T09:14:22.712Z,998.1
2019-04-05T09:15:24.745Z,998.1
2019-04-05T09:16:26.802Z,998.1
2019-04-05T09:17:29.127Z,998.1
2019-04-05T09:18:31.177Z,998.1
2019-04-05T09:19:33.219Z,998.1
2019-04-05T09:20:35.275Z,998.2
2019-04-05T09:21:40.878Z,998.2
2019-04-05T09:22:43.304Z,998.2
2019-04-05T09:23:45.368Z,998.3
2019-04-05T09:24:47.397Z,998.3
2019-04-05T09:25:49.891Z,998.3
2019-04-05T09:26:54.615Z,998.2
2019-04-05T09:27:56.944Z,998.2
2019-04-05T09:28:58.983Z,998.2
2019-04-05T09:30:01.427Z,998.3
2019-04-05T09:31:03.749Z,998.3
2019-04-05T09:32:06.080Z,998.2
2019-04-05T09:33:08.422Z,998.2
2019-04-05T09:34:10.746Z,998.2
2019-04-05T09:35:12.839Z,998.2
2019-04-05T09:36:14.935Z,998.1
2019-04-05T09:37:17.269Z,998.2
2019-04-05T09:38:19.313Z,998.1
2019-04-05T09:39:21.442Z,998.2
2019-04-05T09:40:24.321Z,998.2
2019-04-05T09:41:26.940Z,998.2
2019-04-05T09:42:29.010Z,998.2
2019-04-05T09:43:31.068Z,998.2
2019-04-05T09:44:33.107Z,998.1
2019-04-05T09:45:35.577Z,998.2
2019-04-05T09:46:50.975Z,998.2
2019-04-05T09:47:53.919Z,998.2
2019-04-05T09:48:56.203Z,998.2
2019-04-05T09:49:58.615Z,998.2
2019-04-05T09:51:00.767Z,998.2
2019-04-05T09:52:03.122Z,998.1
2019-04-05T09:53:06.211Z,998.1
2019-04-05T09:54:08.332Z,998.1
2019-04-05T09:55:11.161Z,998.1
2019-04-05T09:56:14.022Z,998.1
2019-04-05T09:57:16.482Z,998.2
2019-04-05T09:58:18.562Z,998.1
2019-04-05T09:59:20.600Z,998.2
2019-04-05T10:00:22.666Z,998.2
2019-04-05T10:01:24.950Z,998.2
2019-04-05T10:02:27.018Z,998.3
2019-04-05T10:03:29.227Z,998.2
2019-04-05T10:04:31.605Z,998.2
2019-04-05T10:05:34.002Z,998.3
2019-04-05T10:06:36.060Z,998.3
2019-04-05T10:07:55.515Z,998.3
2019-04-05T10:08:57.991Z,998.3
2019-04-05T10:10:00.113Z,998.4
2019-04-05T10:11:02.253Z,998.4
2019-04-05T10:12:04.799Z,998.3
2019-04-05T10:13:10.118Z,998.4
2019-04-05T10:14:12.521Z,998.3
2019-04-05T10:15:14.751Z,998.3
2019-04-05T10:16:16.806Z,998.3
2019-04-05T10:17:19.442Z,998.3
2019-04-05T10:18:21.791Z,998.3
2019-04-05T10:19:23.998Z,998.3
2019-04-05T10:20:26.054Z,998.3
2019-04-05T10:21:28.346Z,998.3
2019-04-05T10:22:30.436Z,998.3
2019-04-05T10:23:32.531Z,998.3
2019-04-05T10:24:34.672Z,998.3
2019-04-05T10:25:36.791Z,998.3
2019-04-05T10:26:39.250Z,998.3
2019-04-05T10:27:41.298Z,998.3
2019-04-05T10:28:43.652Z,998.3
2019-04-05T10:29:45.705Z,998.4
2019-04-05T10:30:52.404Z,998.3
2019-04-05T10:31:54.670Z,998.3
2019-04-05T10:32:57.023Z,998.3
2019-04-05T10:33:59.555Z,998.3
2019-04-05T10:35:01.600Z,998.3
2019-04-05T10:36:04.221Z,998.3
2019-04-05T10:37:06.594Z,998.3
2019-04-05T10:38:08.790Z,998.3
2019-04-05T10:39:11.145Z,998.3
2019-04-05T10:40:13.774Z,998.2
2019-04-05T10:41:15.862Z,998.2
2019-04-05T10:42:18.299Z,998.3
2019-04-05T10:43:20.706Z,998.2
2019-04-05T10:44:22.830Z,998.2
2019-04-05T10:45:24.954Z,998.2
2019-04-05T10:46:27.008Z,998.3
2019-04-05T10:47:29.303Z,998.2
2019-04-05T10:48:31.369Z,998.3
2019-04-05T10:49:36.758Z,998.2
2019-04-05T10:50:38.941Z,998.3
2019-04-05T10:51:41.278Z,998.3
2019-04-05T10:52:43.821Z,998.3
2019-04-05T10:53:45.961Z,998.3
2019-04-05T10:54:48.104Z,998.4
2019-04-05T10:55:50.240Z,998.4
2019-04-05T10:56:52.309Z,998.4
2019-04-05T10:57:54.675Z,998.4
2019-04-05T10:58:56.724Z,998.4
2019-04-05T10:59:58.951Z,998.3
2019-04-05T11:01:01.015Z,998.3
2019-04-05T11:02:03.259Z,998.3
2019-04-05T11:03:05.556Z,998.4
2019-04-05T11:04:07.685Z,998.4
2019-04-05T11:05:10.081Z,998.4
2019-04-05T11:06:12.138Z,998.4
2019-04-05T11:07:14.480Z,998.4
2019-04-05T11:08:16.548Z,998.4
2019-04-05T11:09:18.739Z,998.4
2019-04-05T11:10:20.806Z,998.4
2019-04-05T11:11:22.961Z,998.4
2019-04-05T11:12:25.318Z,998.4
2019-04-05T11:13:27.390Z,998.4
2019-04-05T11:14:29.691Z,998.4
2019-04-05T11:15:31.967Z,998.4
2019-04-05T11:16:34.147Z,998.4
2019-04-05T11:17:36.214Z,998.5
2019-04-05T11:18:38.317Z,998.4
2019-04-05T11:19:40.390Z,998.4
2019-04-05T11:20:42.484Z,998.4
2019-04-05T11:21:52.035Z,998.5
2019-04-05T11:22:54.941Z,998.5
2019-04-05T11:23:56.997Z,998.5
2019-04-05T11:24:59.043Z,998.4
2019-04-05T11:26:01.104Z,998.5
2019-04-05T11:27:05.240Z,998.4
2019-04-05T11:28:09.191Z,998.4
2019-04-05T11:29:14.876Z,998.4
2019-04-05T11:30:16.934Z,998.4
2019-04-05T11:31:19.280Z,998.4
2019-04-05T11:32:21.370Z,998.4
2019-04-05T11:33:23.439Z,998.4
2019-04-05T11:34:25.508Z,998.5
2019-04-05T11:35:27.859Z,998.4
2019-04-05T11:36:29.938Z,998.5
2019-04-05T11:37:31.983Z,998.4
2019-04-05T11:38:34.193Z,998.4
2019-04-05T11:39:36.237Z,998.4
2019-04-05T11:40:38.728Z,998.4
2019-04-05T11:41:41.076Z,998.5
2019-04-05T11:42:43.153Z,998.4
2019-04-05T11:43:45.224Z,998.4
2019-04-05T11:44:47.592Z,998.4
2019-04-05T11:45:51.691Z,998.4
2019-04-05T11:46:53.763Z,998.4
2019-04-05T11:47:58.376Z,998.4
2019-04-05T11:49:04.374Z,998.4
2019-04-05T11:50:06.814Z,998.3
2019-04-05T11:51:08.871Z,998.4
2019-04-05T11:52:10.929Z,998.4
2019-04-05T11:53:12.983Z,998.4
2019-04-05T11:54:15.067Z,998.4
2019-04-05T11:55:20.271Z,998.5
2019-04-05T11:56:22.609Z,998.5
2019-04-05T11:57:24.663Z,998.5
2019-04-05T11:58:26.728Z,998.4
2019-04-05T11:59:28.776Z,998.4
2019-04-05T12:00:31.507Z,998.3
2019-04-05T12:01:33.598Z,998.3
2019-04-05T12:02:35.943Z,998.3
2019-04-05T12:03:38.017Z,998.3
2019-04-05T12:04:43.084Z,998.3
2019-04-05T12:05:45.527Z,998.3
2019-04-05T12:06:47.811Z,998.4
2019-04-05T12:08:01.677Z,998.3
2019-04-05T12:09:04.753Z,998.3
2019-04-05T12:10:06.825Z,998.3
2019-04-05T12:11:08.906Z,998.3
2019-04-05T12:12:10.952Z,998.3
2019-04-05T12:13:13.019Z,998.3
2019-04-05T12:14:15.095Z,998.3
2019-04-05T12:15:36.462Z,998.3
2019-04-05T12:16:38.574Z,998.3
2019-04-05T12:17:40.643Z,998.3
2019-04-05T12:18:42.767Z,998.3
2019-04-05T12:19:44.832Z,998.3
2019-04-05T12:20:59.885Z,998.3
2019-04-05T12:22:09.548Z,998.3
2019-04-05T12:23:11.901Z,998.3
2019-04-05T12:24:13.962Z,998.3
2019-04-05T12:25:16.018Z,998.3
2019-04-05T12:26:18.351Z,998.3
2019-04-05T12:27:21.179Z,998.4
2019-04-05T12:28:23.612Z,998.4
2019-04-05T12:29:25.691Z,998.3
2019-04-05T12:30:28.135Z,998.3
2019-04-05T12:31:30.187Z,998.3
2019-04-05T12:32:41.001Z,998.3
2019-04-05T12:33:49.291Z,998.3
2019-04-05T12:34:54.381Z,998.3
2019-04-05T12:35:57.071Z,998.3
2019-04-05T12:36:59.142Z,998.3
2019-04-05T12:38:01.181Z,998.4
2019-04-05T12:39:08.344Z,998.4
2019-04-05T12:40:14.549Z,998.3
2019-04-05T12:41:18.649Z,998.4
2019-04-05T12:42:20.762Z,998.3
2019-04-05T12:43:22.814Z,998.3
2019-04-05T12:44:24.866Z,998.3
2019-04-05T12:45:26.936Z,998.3
2019-04-05T12:46:28.980Z,998.3
2019-04-05T12:47:34.398Z,998.3
2019-04-05T12:48:36.745Z,998.3
2019-04-05T12:49:38.804Z,998.4
2019-04-05T12:50:45.439Z,998.3
2019-04-05T12:51:47.600Z,998.3
2019-04-05T12:52:49.681Z,998.3
2019-04-05T12:53:51.740Z,998.3
2019-04-05T12:54:58.832Z,998.3
2019-04-05T12:56:00.876Z,998.3
2019-04-05T12:57:03.611Z,998.4
2019-04-05T12:58:05.676Z,998.3
2019-04-05T12:59:07.751Z,998.4
2019-04-05T13:00:13.653Z,998.3
2019-04-05T13:01:15.745Z,998.3
2019-04-05T13:02:33.593Z,998.3
2019-04-05T13:03:36.490Z,998.4
2019-04-05T13:04:38.555Z,998.4
2019-04-05T13:05:40.604Z,998.4
2019-04-05T13:06:42.946Z,998.3
2019-04-05T13:07:45.013Z,998.4
2019-04-05T13:08:47.141Z,998.4
2019-04-05T13:09:49.252Z,998.4
2019-04-05T13:10:57.291Z,998.4
2019-04-05T13:11:59.381Z,998.4
2019-04-05T13:13:01.445Z,998.4
2019-04-05T13:14:04.160Z,998.4
2019-04-05T13:15:17.071Z,998.4
2019-04-05T13:16:20.058Z,998.4
2019-04-05T13:17:22.495Z,998.4
2019-04-05T13:18:25.584Z,998.4
2019-04-05T13:19:33.524Z,998.5
2019-04-05T13:20:35.589Z,998.5
2019-04-05T13:21:37.640Z,998.5
2019-04-05T13:22:39.692Z,998.5
2019-04-05T13:23:41.746Z,998.6
2019-04-05T13:24:43.811Z,998.5
2019-04-05T13:25:45.898Z,998.6
2019-04-05T13:26:48.331Z,998.6
2019-04-05T13:27:51.301Z,998.5
2019-04-05T13:28:53.667Z,998.5
2019-04-05T13:29:55.996Z,998.6
2019-04-05T13:30:58.336Z,998.6